createdAt,value
2018-09-05T00:00:44.992Z,31.30
2018-09-05T00:01:44.964Z,28.60
2018-09-05T00:02:44.910Z,28.30
2018-09-05T00:03:44.885Z,29.60
2018-09-05T00:04:44.866Z,29.90
2018-09-05T00:05:44.810Z,29.50
2018-09-05T00:06:44.777Z,30.00
2018-09-05T00:07:44.730Z,27.70
2018-09-05T00:08:44.707Z,29.10
2018-09-05T00:09:44.659Z,28.70
2018-09-05T00:10:44.629Z,26.80
2018-09-05T00:11:44.593Z,26.90
2018-09-05T00:12:44.554Z,26.50
2018-09-05T00:13:44.506Z,28.70
2018-09-05T00:14:44.497Z,30.00
2018-09-05T00:15:44.437Z,30.10
2018-09-05T00:16:44.405Z,28.40
2018-09-05T00:17:44.364Z,27.20
2018-09-05T00:18:44.333Z,28.60
2018-09-05T00:19:44.284Z,25.80
2018-09-05T00:20:44.257Z,27.50
2018-09-05T00:21:44.215Z,29.00
2018-09-05T00:22:44.210Z,29.10
2018-09-05T00:23:44.129Z,29.50
2018-09-05T00:24:44.113Z,30.20
2018-09-05T00:25:44.149Z,29.00
2018-09-05T00:26:44.038Z,29.90
2018-09-05T00:27:43.996Z,29.70
2018-09-05T00:28:43.951Z,29.10
2018-09-05T00:29:43.911Z,29.90
2018-09-05T00:30:43.900Z,36.10
2018-09-05T00:31:43.843Z,34.50
2018-09-05T00:32:43.813Z,32.00
2018-09-05T00:33:43.773Z,32.90
2018-09-05T00:34:43.789Z,33.00
2018-09-05T00:35:43.696Z,28.70
2018-09-05T00:36:43.659Z,29.00
2018-09-05T00:37:43.627Z,32.70
2018-09-05T00:38:43.576Z,31.10
2018-09-05T00:39:43.567Z,26.50
2018-09-05T00:40:43.507Z,27.70
2018-09-05T00:41:43.460Z,40.70
2018-09-05T00:42:43.426Z,27.60
2018-09-05T00:43:43.411Z,27.20
2018-09-05T00:44:43.354Z,29.40
2018-09-05T00:45:43.322Z,28.40
2018-09-05T00:46:43.286Z,38.80
2018-09-05T00:47:43.252Z,29.20
2018-09-05T00:48:43.225Z,38.20
2018-09-05T00:49:43.196Z,29.50
2018-09-05T00:50:43.136Z,24.40
2018-09-05T00:51:43.106Z,24.50
2018-09-05T00:52:43.085Z,27.10
2018-09-05T00:53:43.033Z,26.50
2018-09-05T00:54:42.999Z,27.10
2018-09-05T00:55:42.943Z,25.40
2018-09-05T00:56:42.916Z,25.70
2018-09-05T00:57:42.873Z,24.90
2018-09-05T00:58:42.830Z,26.50
2018-09-05T00:59:42.805Z,24.50
2018-09-05T01:00:42.782Z,23.20
2018-09-05T01:01:42.737Z,22.80
2018-09-05T01:02:42.700Z,23.80
2018-09-05T01:03:42.647Z,24.30
2018-09-05T01:04:42.609Z,25.10
2018-09-05T01:05:42.567Z,27.20
2018-09-05T01:06:42.549Z,23.60
2018-09-05T01:07:42.510Z,26.40
2018-09-05T01:08:42.462Z,22.60
2018-09-05T01:09:42.426Z,27.00
2018-09-05T01:10:42.383Z,36.60
2018-09-05T01:11:42.347Z,31.40
2018-09-05T01:12:42.305Z,29.00
2018-09-05T01:13:42.276Z,28.40
2018-09-05T01:14:42.258Z,29.30
2018-09-05T01:15:42.221Z,29.20
2018-09-05T01:16:42.158Z,20.70
2018-09-05T01:17:42.134Z,28.00
2018-09-05T01:18:42.071Z,28.00
2018-09-05T01:19:42.093Z,31.90
2018-09-05T01:20:42.002Z,30.10
2018-09-05T01:21:41.991Z,30.40
2018-09-05T01:22:41.945Z,28.10
2018-09-05T01:23:41.895Z,31.80
2018-09-05T01:24:41.854Z,31.00
2018-09-05T01:25:41.839Z,29.00
2018-09-05T01:26:41.806Z,30.30
2018-09-05T01:27:41.782Z,28.80
2018-09-05T01:28:41.750Z,28.50
2018-09-05T01:29:41.682Z,28.60
2018-09-05T01:30:41.647Z,28.50
2018-09-05T01:31:41.592Z,26.90
2018-09-05T01:32:41.593Z,27.50
2018-09-05T01:33:41.529Z,26.60
2018-09-05T01:34:41.477Z,25.50
2018-09-05T01:35:41.449Z,25.90
2018-09-05T01:36:41.412Z,26.10
2018-09-05T01:37:41.376Z,27.60
2018-09-05T01:38:41.347Z,27.40
2018-09-05T01:39:41.306Z,26.30
2018-09-05T01:40:41.281Z,25.50
2018-09-05T01:41:41.240Z,24.80
2018-09-05T01:42:41.186Z,25.70
2018-09-05T01:43:41.147Z,25.70
2018-09-05T01:44:41.163Z,26.30
2018-09-05T01:45:41.074Z,25.10
2018-09-05T01:46:41.028Z,26.50
2018-09-05T01:47:40.998Z,26.40
2018-09-05T01:48:40.954Z,25.30
2018-09-05T01:49:40.971Z,24.60
2018-09-05T01:50:40.885Z,25.90
2018-09-05T01:51:40.835Z,25.50
2018-09-05T01:52:40.829Z,25.30
2018-09-05T01:53:40.775Z,23.70
2018-09-05T01:54:40.728Z,23.70
2018-09-05T01:55:40.699Z,22.20
2018-09-05T01:56:40.659Z,20.10
2018-09-05T01:57:40.610Z,21.30
2018-09-05T01:58:40.589Z,22.80
2018-09-05T01:59:40.543Z,24.00
2018-09-05T02:00:40.506Z,24.30
2018-09-05T02:01:40.474Z,23.50
2018-09-05T02:02:40.435Z,23.10
2018-09-05T02:03:40.416Z,22.40
2018-09-05T02:04:40.351Z,22.60
2018-09-05T02:05:40.327Z,21.80
2018-09-05T02:06:40.275Z,22.90
2018-09-05T02:07:40.247Z,21.40
2018-09-05T02:08:40.219Z,23.40
2018-09-05T02:09:40.170Z,23.60
2018-09-05T02:10:40.132Z,29.00
2018-09-05T02:11:40.102Z,26.80
2018-09-05T02:12:40.060Z,28.40
2018-09-05T02:13:40.023Z,29.10
2018-09-05T02:14:39.986Z,27.70
2018-09-05T02:15:39.948Z,27.80
2018-09-05T02:16:39.902Z,27.00
2018-09-05T02:17:39.984Z,27.90
2018-09-05T02:18:39.827Z,27.70
2018-09-05T02:19:39.781Z,28.30
2018-09-05T02:20:39.754Z,27.40
2018-09-05T02:21:39.703Z,28.30
2018-09-05T02:22:39.671Z,27.70
2018-09-05T02:23:39.655Z,26.80
2018-09-05T02:24:39.601Z,27.80
2018-09-05T02:25:39.560Z,28.00
2018-09-05T02:26:39.564Z,25.80
2018-09-05T02:27:39.489Z,26.50
2018-09-05T02:28:39.450Z,24.50
2018-09-05T02:29:39.430Z,25.40
2018-09-05T02:30:39.381Z,25.00
2018-09-05T02:31:39.342Z,23.20
2018-09-05T02:32:39.302Z,21.80
2018-09-05T02:33:39.251Z,22.70
2018-09-05T02:34:39.208Z,24.70
2018-09-05T02:35:39.200Z,26.60
2018-09-05T02:36:39.151Z,25.30
2018-09-05T02:37:39.127Z,28.20
2018-09-05T02:38:39.072Z,27.00
2018-09-05T02:39:39.033Z,28.00
2018-09-05T02:40:38.999Z,29.40
2018-09-05T02:41:38.952Z,39.30
2018-09-05T02:42:38.935Z,30.60
2018-09-05T02:43:38.927Z,26.10
2018-09-05T02:44:38.836Z,31.80
2018-09-05T02:45:38.804Z,29.90
2018-09-05T02:46:38.773Z,31.30
2018-09-05T02:47:38.737Z,50.70
2018-09-05T02:48:38.702Z,44.80
2018-09-05T02:49:38.665Z,28.40
2018-09-05T02:50:38.621Z,26.50
2018-09-05T02:51:38.565Z,27.00
2018-09-05T02:52:38.526Z,27.30
2018-09-05T02:53:38.500Z,28.60
2018-09-05T02:54:38.461Z,28.00
2018-09-05T02:55:38.416Z,29.00
2018-09-05T02:56:38.388Z,28.10
2018-09-05T02:57:38.347Z,25.90
2018-09-05T02:58:38.317Z,26.60
2018-09-05T02:59:38.278Z,23.90
2018-09-05T03:00:38.243Z,23.50
2018-09-05T03:01:38.183Z,24.30
2018-09-05T03:02:38.157Z,27.30
2018-09-05T03:03:38.120Z,27.20
2018-09-05T03:04:38.077Z,27.70
2018-09-05T03:05:38.041Z,27.70
2018-09-05T03:06:38.000Z,27.60
2018-09-05T03:07:37.990Z,25.60
2018-09-05T03:08:37.922Z,27.30
2018-09-05T03:09:37.882Z,28.40
2018-09-05T03:10:37.890Z,22.80
2018-09-05T03:11:37.808Z,24.90
2018-09-05T03:12:37.764Z,34.10
2018-09-05T03:13:37.739Z,36.30
2018-09-05T03:14:37.703Z,30.40
2018-09-05T03:15:37.652Z,38.20
2018-09-05T03:16:37.660Z,30.50
2018-09-05T03:17:37.598Z,28.20
2018-09-05T03:18:37.550Z,28.80
2018-09-05T03:19:37.512Z,30.10
2018-09-05T03:20:37.461Z,29.10
2018-09-05T03:21:37.423Z,27.30
2018-09-05T03:22:37.388Z,28.40
2018-09-05T03:23:37.447Z,30.00
2018-09-05T03:24:37.334Z,29.60
2018-09-05T03:25:37.274Z,28.60
2018-09-05T03:26:37.239Z,29.30
2018-09-05T03:27:37.188Z,28.70
2018-09-05T03:28:37.190Z,27.70
2018-09-05T03:29:37.135Z,27.90
2018-09-05T03:30:37.090Z,26.10
2018-09-05T03:31:37.078Z,27.70
2018-09-05T03:32:37.121Z,28.70
2018-09-05T03:33:36.969Z,26.80
2018-09-05T03:34:36.935Z,27.90
2018-09-05T03:35:36.961Z,27.10
2018-09-05T03:36:36.854Z,29.20
2018-09-05T03:37:36.840Z,28.60
2018-09-05T03:38:36.787Z,26.50
2018-09-05T03:39:36.754Z,27.20
2018-09-05T03:40:36.706Z,28.30
2018-09-05T03:41:36.687Z,28.90
2018-09-05T03:42:36.629Z,28.70
2018-09-05T03:43:36.610Z,29.00
2018-09-05T03:44:36.557Z,29.40
2018-09-05T03:45:36.536Z,30.50
2018-09-05T03:46:36.574Z,26.60
2018-09-05T03:47:36.462Z,27.70
2018-09-05T03:48:36.456Z,27.50
2018-09-05T03:49:36.444Z,24.60
2018-09-05T03:50:36.335Z,26.90
2018-09-05T03:51:36.289Z,25.10
2018-09-05T03:52:36.318Z,26.30
2018-09-05T03:53:36.221Z,25.80
2018-09-05T03:54:36.217Z,28.70
2018-09-05T03:55:36.164Z,28.90
2018-09-05T03:56:36.088Z,32.40
2018-09-05T03:57:36.072Z,33.50
2018-09-05T03:58:36.027Z,33.10
2018-09-05T03:59:36.042Z,31.00
2018-09-05T04:00:35.963Z,28.10
2018-09-05T04:01:35.947Z,28.70
2018-09-05T04:02:35.891Z,28.30
2018-09-05T04:03:35.829Z,27.20
2018-09-05T04:04:35.844Z,28.30
2018-09-05T04:05:35.762Z,27.70
2018-09-05T04:06:35.719Z,29.30
2018-09-05T04:07:35.692Z,33.30
2018-09-05T04:08:35.640Z,32.20
2018-09-05T04:09:35.606Z,30.70
2018-09-05T04:10:35.622Z,31.40
2018-09-05T04:11:35.571Z,31.30
2018-09-05T04:12:35.478Z,28.10
2018-09-05T04:13:35.455Z,25.50
2018-09-05T04:14:35.417Z,28.00
2018-09-05T04:15:35.389Z,26.90
2018-09-05T04:16:35.386Z,28.10
2018-09-05T04:17:35.340Z,29.80
2018-09-05T04:18:35.267Z,26.90
2018-09-05T04:19:35.213Z,29.30
2018-09-05T04:20:35.177Z,28.50
2018-09-05T04:21:35.130Z,29.90
2018-09-05T04:22:35.124Z,32.90
2018-09-05T04:23:35.070Z,35.50
2018-09-05T04:24:35.032Z,34.30
2018-09-05T04:25:34.989Z,31.10
2018-09-05T04:26:34.951Z,31.60
2018-09-05T04:27:34.927Z,32.90
2018-09-05T04:28:34.865Z,33.50
2018-09-05T04:29:34.864Z,34.50
2018-09-05T04:30:34.799Z,35.30
2018-09-05T04:31:34.767Z,36.30
2018-09-05T04:32:34.730Z,34.40
2018-09-05T04:33:34.686Z,32.90
2018-09-05T04:34:34.675Z,33.00
2018-09-05T04:35:34.613Z,33.00
2018-09-05T04:36:34.571Z,31.50
2018-09-05T04:37:34.555Z,32.20
2018-09-05T04:38:34.538Z,34.00
2018-09-05T04:39:34.455Z,33.20
2018-09-05T04:40:34.433Z,33.50
2018-09-05T04:41:34.407Z,33.00
2018-09-05T04:42:34.354Z,34.40
2018-09-05T04:43:34.308Z,36.40
2018-09-05T04:44:34.277Z,36.80
2018-09-05T04:45:34.222Z,35.00
2018-09-05T04:46:34.196Z,37.10
2018-09-05T04:47:34.160Z,35.70
2018-09-05T04:48:34.166Z,36.20
2018-09-05T04:49:34.074Z,35.20
2018-09-05T04:50:34.036Z,34.90
2018-09-05T04:51:34.049Z,34.50
2018-09-05T04:52:34.003Z,35.40
2018-09-05T04:53:33.927Z,35.50
2018-09-05T04:54:33.885Z,36.10
2018-09-05T04:55:33.844Z,38.20
2018-09-05T04:56:33.810Z,37.20
2018-09-05T04:57:33.767Z,37.90
2018-09-05T04:58:33.837Z,37.50
2018-09-05T04:59:33.704Z,36.70
2018-09-05T05:00:33.693Z,37.40
2018-09-05T05:01:33.614Z,37.70
2018-09-05T05:02:33.708Z,36.30
2018-09-05T05:03:33.542Z,36.00
2018-09-05T05:04:33.514Z,33.10
2018-09-05T05:05:33.555Z,31.80
2018-09-05T05:06:33.441Z,33.40
2018-09-05T05:07:33.455Z,34.90
2018-09-05T05:08:33.452Z,35.00
2018-09-05T05:09:33.371Z,32.60
2018-09-05T05:10:33.319Z,33.50
2018-09-05T05:11:33.255Z,34.10
2018-09-05T05:12:33.288Z,33.80
2018-09-05T05:13:33.189Z,33.40
2018-09-05T05:14:33.134Z,34.60
2018-09-05T05:15:33.113Z,35.20
2018-09-05T05:16:33.072Z,35.80
2018-09-05T05:17:33.044Z,34.40
2018-09-05T05:18:32.970Z,34.30
2018-09-05T05:19:32.951Z,34.40
2018-09-05T05:20:32.919Z,33.50
2018-09-05T05:21:32.862Z,34.40
2018-09-05T05:22:32.847Z,33.20
2018-09-05T05:23:32.833Z,34.10
2018-09-05T05:24:32.777Z,33.30
2018-09-05T05:25:32.748Z,33.20
2018-09-05T05:26:32.684Z,34.70
2018-09-05T05:27:32.641Z,35.30
2018-09-05T05:28:32.601Z,34.70
2018-09-05T05:29:32.579Z,34.50
2018-09-05T05:30:32.550Z,32.70
2018-09-05T05:31:32.512Z,33.00
2018-09-05T05:32:32.589Z,34.50
2018-09-05T05:33:32.465Z,33.60
2018-09-05T05:34:32.446Z,34.30
2018-09-05T05:35:32.407Z,33.10
2018-09-05T05:36:32.314Z,32.30
2018-09-05T05:37:32.300Z,32.50
2018-09-05T05:38:32.265Z,33.40
2018-09-05T05:39:32.244Z,32.60
2018-09-05T05:40:32.168Z,33.60
2018-09-05T05:41:32.152Z,33.60
2018-09-05T05:42:32.127Z,32.90
2018-09-05T05:43:32.059Z,33.10
2018-09-05T05:44:32.004Z,33.30
2018-09-05T05:45:31.984Z,33.40
2018-09-05T05:46:31.953Z,33.50
2018-09-05T05:47:31.909Z,33.50
2018-09-05T05:48:31.856Z,33.60
2018-09-05T05:49:31.875Z,33.00
2018-09-05T05:50:31.823Z,32.50
2018-09-05T05:51:31.770Z,33.50
2018-09-05T05:52:31.712Z,31.70
2018-09-05T05:53:31.711Z,31.90
2018-09-05T05:54:31.693Z,32.80
2018-09-05T05:55:31.603Z,33.90
2018-09-05T05:56:31.577Z,32.30
2018-09-05T05:57:31.548Z,31.80
2018-09-05T05:58:31.518Z,30.60
2018-09-05T05:59:31.468Z,29.90
2018-09-05T06:00:31.436Z,29.50
2018-09-05T06:01:31.438Z,28.20
2018-09-05T06:02:31.357Z,27.60
2018-09-05T06:03:31.319Z,29.00
2018-09-05T06:04:31.328Z,28.30
2018-09-05T06:05:31.274Z,30.20
2018-09-05T06:06:31.232Z,30.00
2018-09-05T06:07:31.178Z,30.20
2018-09-05T06:08:31.152Z,30.80
2018-09-05T06:09:31.112Z,30.30
2018-09-05T06:10:31.061Z,31.70
2018-09-05T06:11:31.004Z,32.40
2018-09-05T06:12:30.978Z,31.40
2018-09-05T06:13:30.941Z,31.20
2018-09-05T06:14:30.906Z,30.50
2018-09-05T06:15:30.904Z,27.80
2018-09-05T06:16:30.822Z,27.00
2018-09-05T06:17:30.844Z,28.30
2018-09-05T06:18:30.763Z,27.90
2018-09-05T06:19:30.722Z,29.10
2018-09-05T06:20:30.672Z,28.50
2018-09-05T06:21:30.650Z,29.00
2018-09-05T06:22:30.625Z,27.40
2018-09-05T06:23:30.588Z,28.40
2018-09-05T06:24:30.547Z,28.20
2018-09-05T06:25:30.516Z,27.50
2018-09-05T06:26:30.485Z,30.10
2018-09-05T06:27:30.432Z,29.70
2018-09-05T06:28:30.398Z,30.20
2018-09-05T06:29:30.393Z,30.20
2018-09-05T06:30:30.420Z,30.80
2018-09-05T06:31:30.287Z,29.70
2018-09-05T06:32:30.266Z,28.80
2018-09-05T06:33:30.252Z,29.80
2018-09-05T06:34:30.191Z,28.20
2018-09-05T06:35:30.157Z,29.90
2018-09-05T06:36:30.108Z,29.00
2018-09-05T06:37:30.097Z,27.80
2018-09-05T06:38:30.050Z,28.10
2018-09-05T06:39:30.003Z,27.80
2018-09-05T06:40:29.996Z,28.10
2018-09-05T06:41:29.933Z,28.70
2018-09-05T06:42:29.896Z,27.50
2018-09-05T06:43:29.854Z,26.20
2018-09-05T06:44:29.852Z,25.60
2018-09-05T06:45:29.844Z,26.90
2018-09-05T06:46:29.755Z,25.30
2018-09-05T06:47:29.728Z,24.60
2018-09-05T06:48:29.699Z,25.20
2018-09-05T06:49:29.650Z,24.10
2018-09-05T06:50:29.619Z,23.20
2018-09-05T06:51:29.676Z,22.70
2018-09-05T06:52:29.553Z,23.20
2018-09-05T06:53:29.511Z,22.60
2018-09-05T06:54:29.490Z,23.50
2018-09-05T06:55:29.463Z,21.50
2018-09-05T06:56:29.413Z,21.70
2018-09-05T06:57:29.383Z,20.50
2018-09-05T06:58:29.342Z,21.50
2018-09-05T06:59:29.297Z,20.10
2018-09-05T07:00:29.284Z,18.50
2018-09-05T07:01:29.264Z,18.00
2018-09-05T07:02:29.212Z,19.60
2018-09-05T07:03:29.246Z,18.70
2018-09-05T07:04:29.149Z,19.60
2018-09-05T07:05:29.115Z,18.10
2018-09-05T07:06:29.121Z,17.80
2018-09-05T07:07:29.056Z,16.80
2018-09-05T07:08:29.053Z,15.80
2018-09-05T07:09:29.033Z,15.50
2018-09-05T07:10:28.992Z,15.50
2018-09-05T07:11:28.944Z,14.90
2018-09-05T07:12:28.920Z,13.80
2018-09-05T07:13:28.876Z,14.00
2018-09-05T07:14:28.912Z,13.80
2018-09-05T07:15:28.828Z,13.90
2018-09-05T07:16:28.796Z,14.30
2018-09-05T07:17:28.801Z,14.30
2018-09-05T07:18:28.748Z,14.20
2018-09-05T07:19:28.709Z,12.90
2018-09-05T07:20:28.682Z,13.60
2018-09-05T07:21:28.738Z,12.70
2018-09-05T07:22:28.642Z,13.20
2018-09-05T07:23:28.606Z,12.80
2018-09-05T07:24:28.576Z,12.40
2018-09-05T07:25:28.562Z,13.60
2018-09-05T07:26:28.547Z,14.80
2018-09-05T07:27:28.595Z,12.90
2018-09-05T07:28:28.491Z,14.10
2018-09-05T07:29:28.446Z,15.00
2018-09-05T07:30:28.461Z,15.40
2018-09-05T07:31:28.415Z,14.90
2018-09-05T07:32:28.391Z,15.10
2018-09-05T07:33:28.375Z,15.00
2018-09-05T07:34:28.327Z,14.90
2018-09-05T07:35:28.312Z,15.10
2018-09-05T07:36:28.292Z,15.20
2018-09-05T07:37:28.256Z,15.60
2018-09-05T07:38:28.245Z,15.40
2018-09-05T07:39:28.216Z,15.10
2018-09-05T07:40:28.194Z,14.70
2018-09-05T07:41:28.174Z,12.60
2018-09-05T07:42:28.154Z,13.60
2018-09-05T07:43:28.142Z,14.40
2018-09-05T07:44:28.102Z,12.80
2018-09-05T07:45:28.084Z,12.30
2018-09-05T07:46:28.052Z,11.60
2018-09-05T07:47:28.054Z,12.40
2018-09-05T07:48:28.029Z,13.20
2018-09-05T07:49:27.987Z,14.90
2018-09-05T07:50:28.022Z,14.90
2018-09-05T07:51:27.944Z,14.60
2018-09-05T07:52:27.940Z,14.80
2018-09-05T07:53:27.894Z,14.60
2018-09-05T07:54:27.896Z,15.30
2018-09-05T07:55:27.857Z,15.00
2018-09-05T07:56:27.851Z,15.20
2018-09-05T07:57:27.860Z,15.00
2018-09-05T07:58:27.805Z,15.20
2018-09-05T07:59:27.768Z,15.10
2018-09-05T08:00:27.752Z,14.50
2018-09-05T08:01:27.776Z,15.10
2018-09-05T08:02:27.715Z,14.70
2018-09-05T08:03:27.688Z,14.10
2018-09-05T08:04:27.695Z,14.30
2018-09-05T08:05:27.665Z,14.30
2018-09-05T08:06:27.634Z,14.30
2018-09-05T08:07:27.604Z,13.90
2018-09-05T08:08:27.593Z,13.70
2018-09-05T08:09:27.562Z,14.10
2018-09-05T08:10:27.588Z,13.90
2018-09-05T08:11:27.511Z,14.20
2018-09-05T08:12:27.549Z,13.30
2018-09-05T08:13:27.486Z,13.60
2018-09-05T08:14:27.439Z,13.30
2018-09-05T08:15:27.426Z,14.10
2018-09-05T08:16:27.399Z,13.10
2018-09-05T08:17:27.406Z,11.20
2018-09-05T08:18:27.364Z,11.00
2018-09-05T08:19:27.353Z,12.50
2018-09-05T08:20:27.374Z,12.70
2018-09-05T08:21:27.290Z,12.50
2018-09-05T08:22:27.273Z,12.40
2018-09-05T08:23:27.248Z,12.90
2018-09-05T08:24:27.289Z,11.30
2018-09-05T08:25:27.219Z,11.10
2018-09-05T08:26:27.186Z,12.40
2018-09-05T08:27:27.145Z,11.90
2018-09-05T08:28:27.131Z,11.10
2018-09-05T08:29:27.139Z,11.00
2018-09-05T08:30:27.129Z,12.10
2018-09-05T08:31:27.039Z,13.30
2018-09-05T08:32:27.031Z,13.30
2018-09-05T08:33:26.995Z,12.90
2018-09-05T08:34:26.960Z,13.20
2018-09-05T08:35:27.114Z,12.90
2018-09-05T08:36:27.216Z,13.30
2018-09-05T08:37:27.009Z,12.70
2018-09-05T08:38:26.990Z,13.30
2018-09-05T08:39:26.845Z,13.10
2018-09-05T08:40:26.867Z,12.20
2018-09-05T08:41:26.868Z,12.50
2018-09-05T08:42:26.834Z,13.30
2018-09-05T08:43:26.835Z,13.40
2018-09-05T08:44:26.729Z,13.10
2018-09-05T08:45:26.995Z,12.60
2018-09-05T08:46:26.681Z,12.30
2018-09-05T08:47:26.772Z,12.70
2018-09-05T08:48:26.720Z,12.70
2018-09-05T08:49:26.574Z,12.40
2018-09-05T08:50:26.546Z,12.60
2018-09-05T08:51:26.549Z,11.20
2018-09-05T08:52:26.517Z,11.50
2018-09-05T08:53:26.482Z,10.80
2018-09-05T08:54:26.463Z,10.80
2018-09-05T08:55:26.546Z,11.20
2018-09-05T08:56:26.394Z,11.30
2018-09-05T08:57:26.421Z,12.10
2018-09-05T08:58:26.357Z,11.30
2018-09-05T08:59:26.348Z,11.60
2018-09-05T09:00:26.307Z,12.40
2018-09-05T09:01:26.268Z,12.00
2018-09-05T09:02:26.251Z,11.20
2018-09-05T09:03:26.290Z,11.60
2018-09-05T09:04:26.249Z,11.70
2018-09-05T09:05:26.207Z,11.00
2018-09-05T09:06:26.147Z,11.60
2018-09-05T09:07:26.149Z,11.30
2018-09-05T09:08:26.096Z,11.30
2018-09-05T09:09:26.089Z,11.60
2018-09-05T09:10:26.043Z,11.60
2018-09-05T09:11:26.033Z,12.50
2018-09-05T09:12:26.001Z,11.30
2018-09-05T09:13:25.977Z,11.20
2018-09-05T09:14:25.964Z,10.70
2018-09-05T09:15:25.936Z,10.30
2018-09-05T09:16:25.912Z,10.70
2018-09-05T09:17:25.874Z,10.70
2018-09-05T09:18:25.861Z,10.90
2018-09-05T09:19:25.836Z,10.50
2018-09-05T09:20:25.821Z,10.70
2018-09-05T09:21:25.792Z,10.80
2018-09-05T09:22:25.780Z,10.40
2018-09-05T09:23:25.752Z,10.80
2018-09-05T09:24:25.729Z,10.30
2018-09-05T09:25:25.719Z,10.30
2018-09-05T09:26:25.689Z,10.30
2018-09-05T09:27:25.656Z,9.60
2018-09-05T09:28:25.705Z,10.90
2018-09-05T09:29:25.640Z,10.70
2018-09-05T09:30:25.610Z,10.00
2018-09-05T09:31:25.573Z,10.00
2018-09-05T09:32:25.545Z,9.80
2018-09-05T09:33:25.538Z,10.10
2018-09-05T09:34:25.506Z,10.40
2018-09-05T09:35:25.572Z,9.20
2018-09-05T09:36:25.531Z,9.60
2018-09-05T09:37:25.505Z,9.40
2018-09-05T09:38:25.452Z,9.40
2018-09-05T09:39:25.425Z,10.20
2018-09-05T09:40:25.392Z,9.90
2018-09-05T09:41:25.407Z,9.80
2018-09-05T09:42:25.348Z,10.10
2018-09-05T09:43:25.364Z,9.40
2018-09-05T09:44:25.373Z,9.70
2018-09-05T09:45:25.309Z,10.10
2018-09-05T09:46:25.361Z,9.90
2018-09-05T09:47:25.253Z,10.10
2018-09-05T09:48:25.275Z,9.00
2018-09-05T09:49:25.259Z,9.00
2018-09-05T09:50:25.218Z,9.10
2018-09-05T09:51:25.232Z,9.20
2018-09-05T09:52:25.167Z,8.80
2018-09-05T09:53:25.129Z,8.60
2018-09-05T09:54:25.118Z,8.90
2018-09-05T09:55:25.104Z,8.10
2018-09-05T09:56:25.083Z,7.80
2018-09-05T09:57:25.069Z,8.40
2018-09-05T09:58:25.039Z,8.20
2018-09-05T09:59:25.062Z,8.30
2018-09-05T10:00:24.998Z,8.70
2018-09-05T10:01:25.025Z,8.50
2018-09-05T10:02:24.957Z,8.50
2018-09-05T10:03:25.064Z,8.90
2018-09-05T10:04:24.911Z,8.30
2018-09-05T10:05:24.911Z,8.70
2018-09-05T10:06:24.894Z,8.70
2018-09-05T10:07:24.887Z,9.30
2018-09-05T10:08:24.850Z,9.00
2018-09-05T10:09:24.830Z,8.20
2018-09-05T10:10:24.820Z,7.90
2018-09-05T10:11:24.805Z,8.20
2018-09-05T10:12:24.774Z,8.50
2018-09-05T10:13:24.746Z,8.20
2018-09-05T10:14:24.743Z,8.10
2018-09-05T10:15:24.728Z,7.90
2018-09-05T10:16:24.746Z,7.30
2018-09-05T10:17:24.671Z,8.10
2018-09-05T10:18:24.709Z,8.70
2018-09-05T10:19:24.639Z,8.90
2018-09-05T10:20:24.645Z,9.20
2018-09-05T10:21:24.611Z,8.90
2018-09-05T10:22:24.586Z,8.80
2018-09-05T10:23:24.596Z,8.90
2018-09-05T10:24:24.535Z,9.20
2018-09-05T10:25:24.515Z,9.50
2018-09-05T10:26:24.512Z,9.30
2018-09-05T10:27:24.496Z,9.10
2018-09-05T10:28:24.474Z,8.90
2018-09-05T10:29:24.446Z,8.50
2018-09-05T10:30:24.421Z,8.60
2018-09-05T10:31:24.409Z,8.40
2018-09-05T10:32:24.408Z,8.70
2018-09-05T10:33:24.383Z,8.70
2018-09-05T10:34:24.373Z,8.40
2018-09-05T10:35:24.353Z,8.00
2018-09-05T10:36:24.320Z,8.00
2018-09-05T10:37:24.317Z,8.30
2018-09-05T10:38:24.277Z,8.60
2018-09-05T10:39:24.341Z,8.10
2018-09-05T10:40:24.244Z,7.70
2018-09-05T10:41:24.210Z,7.80
2018-09-05T10:42:24.212Z,8.60
2018-09-05T10:43:24.189Z,8.50
2018-09-05T10:44:24.248Z,8.50
2018-09-05T10:45:24.152Z,7.60
2018-09-05T10:46:24.135Z,8.20
2018-09-05T10:47:24.126Z,7.40
2018-09-05T10:48:24.087Z,8.60
2018-09-05T10:49:24.079Z,8.80
2018-09-05T10:50:24.060Z,8.10
2018-09-05T10:51:24.019Z,8.10
2018-09-05T10:52:23.994Z,9.00
2018-09-05T10:53:24.004Z,8.50
2018-09-05T10:54:23.975Z,7.80
2018-09-05T10:55:23.949Z,7.80
2018-09-05T10:56:23.949Z,8.70
2018-09-05T10:57:23.978Z,8.20
2018-09-05T10:58:23.921Z,8.40
2018-09-05T10:59:23.870Z,8.70
2018-09-05T11:00:23.863Z,8.90
2018-09-05T11:01:23.833Z,8.50
2018-09-05T11:02:23.811Z,8.90
2018-09-05T11:03:23.818Z,8.40
2018-09-05T11:04:23.787Z,8.60
2018-09-05T11:05:23.752Z,8.60
2018-09-05T11:06:23.758Z,9.40
2018-09-05T11:07:23.735Z,9.00
2018-09-05T11:08:23.710Z,9.20
2018-09-05T11:09:23.754Z,9.60
2018-09-05T11:10:23.699Z,9.00
2018-09-05T11:11:23.640Z,9.90
2018-09-05T11:12:23.604Z,10.20
2018-09-05T11:13:23.604Z,10.30
2018-09-05T11:14:23.601Z,10.00
2018-09-05T11:15:23.585Z,9.20
2018-09-05T11:16:23.547Z,8.60
2018-09-05T11:17:23.560Z,9.30
2018-09-05T11:18:23.500Z,9.40
2018-09-05T11:19:23.502Z,9.30
2018-09-05T11:20:23.478Z,9.50
2018-09-05T11:21:23.519Z,9.90
2018-09-05T11:22:23.464Z,10.00
2018-09-05T11:23:23.392Z,9.70
2018-09-05T11:24:23.403Z,9.30
2018-09-05T11:25:23.389Z,9.00
2018-09-05T11:26:23.340Z,9.00
2018-09-05T11:27:23.305Z,9.60
2018-09-05T11:28:24.957Z,9.30
2018-09-05T11:29:23.266Z,8.90
2018-09-05T11:30:23.239Z,9.70
2018-09-05T11:31:23.245Z,10.20
2018-09-05T11:32:23.228Z,10.10
2018-09-05T11:33:23.182Z,10.10
2018-09-05T11:34:23.167Z,9.60
2018-09-05T11:35:23.160Z,10.80
2018-09-05T11:36:23.135Z,10.70
2018-09-05T11:37:23.120Z,10.60
2018-09-05T11:38:23.093Z,10.30
2018-09-05T11:39:23.094Z,10.70
2018-09-05T11:40:23.095Z,10.40
2018-09-05T11:41:23.032Z,9.80
2018-09-05T11:42:23.009Z,10.40
2018-09-05T11:43:22.981Z,10.60
2018-09-05T11:44:22.965Z,10.00
2018-09-05T11:45:22.953Z,10.50
2018-09-05T11:46:22.933Z,10.50
2018-09-05T11:47:22.906Z,10.20
2018-09-05T11:48:22.931Z,10.60
2018-09-05T11:49:22.876Z,10.60
2018-09-05T11:50:22.863Z,10.50
2018-09-05T11:51:22.831Z,10.60
2018-09-05T11:52:22.831Z,9.80
2018-09-05T11:53:22.782Z,10.70
2018-09-05T11:54:22.769Z,10.60
2018-09-05T11:55:22.775Z,10.20
2018-09-05T11:56:22.777Z,10.60
2018-09-05T11:57:22.772Z,11.30
2018-09-05T11:58:22.684Z,11.10
2018-09-05T11:59:22.694Z,10.70
2018-09-05T12:00:22.646Z,10.70
2018-09-05T12:01:22.631Z,10.60
2018-09-05T12:02:22.676Z,11.00
2018-09-05T12:03:22.609Z,10.70
2018-09-05T12:04:22.574Z,11.50
2018-09-05T12:05:22.616Z,11.40
2018-09-05T12:06:22.522Z,11.10
2018-09-05T12:07:22.509Z,11.00
2018-09-05T12:08:22.479Z,10.60
2018-09-05T12:09:22.471Z,10.50
2018-09-05T12:10:22.458Z,10.90
2018-09-05T12:11:22.440Z,10.80
2018-09-05T12:12:22.402Z,10.40
2018-09-05T12:13:22.373Z,9.60
2018-09-05T12:14:22.368Z,9.80
2018-09-05T12:15:22.354Z,9.50
2018-09-05T12:16:22.318Z,10.00
2018-09-05T12:17:22.889Z,9.10
2018-09-05T12:18:22.295Z,8.60
2018-09-05T12:19:22.264Z,8.80
2018-09-05T12:20:22.234Z,8.30
2018-09-05T12:21:22.220Z,8.20
2018-09-05T12:22:22.229Z,9.00
2018-09-05T12:23:22.188Z,9.10
2018-09-05T12:24:22.165Z,9.20
2018-09-05T12:25:22.150Z,9.60
2018-09-05T12:26:22.135Z,9.00
2018-09-05T12:27:22.113Z,8.70
2018-09-05T12:28:22.095Z,9.10
2018-09-05T12:29:22.085Z,9.50
2018-09-05T12:30:22.085Z,9.40
2018-09-05T12:31:22.051Z,8.50
2018-09-05T12:32:22.003Z,9.00
2018-09-05T12:33:21.989Z,8.70
2018-09-05T12:34:21.972Z,9.60
2018-09-05T12:35:21.950Z,8.70
2018-09-05T12:36:21.994Z,8.90
2018-09-05T12:37:21.908Z,9.20
2018-09-05T12:38:21.936Z,9.10
2018-09-05T12:39:21.865Z,8.90
2018-09-05T12:40:21.858Z,8.70
2018-09-05T12:41:21.835Z,8.40
2018-09-05T12:42:21.811Z,8.50
2018-09-05T12:43:21.797Z,8.30
2018-09-05T12:44:21.782Z,8.30
2018-09-05T12:45:21.756Z,8.30
2018-09-05T12:46:21.743Z,8.10
2018-09-05T12:47:21.711Z,8.50
2018-09-05T12:48:21.692Z,8.30
2018-09-05T12:49:21.691Z,7.90
2018-09-05T12:50:21.676Z,8.30
2018-09-05T12:51:21.636Z,8.20
2018-09-05T12:52:21.621Z,8.10
2018-09-05T12:53:21.595Z,8.40
2018-09-05T12:54:21.567Z,7.50
2018-09-05T12:55:21.552Z,7.30
2018-09-05T12:56:21.534Z,7.70
2018-09-05T12:57:21.504Z,7.60